Time;durP1;ratioP1;P1;durP2;ratioP2;P2;SDS_P1;SDS_P2;PMS_P1;PMS_P2;Temp;Humidity;BMP_temperature;BMP_pressure;BME280_temperature;BME280_humidity;BME280_pressure;Samples;Min_cycle;Max_cycle;Signal;HPM_P1;HPM_P2
2022/04/14 00:00:23;;;;;;;;;;;;;;;17.73;48.06;100760.53;4924052;28;127533;-63
2022/04/14 00:02:52;;;;;;;;;;;;;;;17.71;48.17;100754.56;4939109;28;97839;-63
2022/04/14 00:05:18;;;;;;;;;;;;;;;17.69;48.04;100748.63;4925499;28;98845;-64
2022/04/14 00:07:44;;;;;;;;;;;;;;;17.68;48.26;100741.53;4937168;28;127675;-62
2022/04/14 00:10:11;;;;;;;;;;;;;;;17.66;48.20;100747.31;4924372;28;97816;-63
2022/04/14 00:12:37;;;;;;;;;;;;;;;17.65;48.17;100744.91;4923558;28;98349;-63
2022/04/14 00:15:04;;;;;;;;;;;;;;;17.64;48.12;100746.81;4923373;28;98551;-62
2022/04/14 00:17:33;;;;;;;;;;;;;;;17.63;48.29;100744.38;4937587;28;99359;-64
2022/04/14 00:20:06;;;;;;;;;;;;;;;17.63;48.20;100747.91;4931163;28;104042;-62
2022/04/14 00:22:32;;;;;;;;;;;;;;;17.62;48.00;100745.50;4942320;28;98881;-63
2022/04/14 00:24:58;;;;;;;;;;;;;;;17.61;48.27;100744.72;4923118;28;127312;-63
2022/04/14 00:27:24;;;;;;;;;;;;;;;17.61;48.03;100750.16;4913606;28;104140;-63
2022/04/14 00:29:50;;;;;;;;;;;;;;;17.60;48.29;100753.97;4922913;28;130113;-63
2022/04/14 00:32:16;;;;;;;;;;;;;;;17.61;48.34;100750.16;4922774;28;98082;-63
2022/04/14 00:34:42;;;;;;;;;;;;;;;17.61;48.31;100749.34;4937452;28;123282;-63
2022/04/14 00:37:10;;;;;;;;;;;;;;;17.59;48.35;100743.38;4922590;28;127911;-63
2022/04/14 00:39:36;;;;;;;;;;;;;;;17.60;48.43;100751.25;4920918;28;98209;-63
2022/04/14 00:42:09;;;;;;;;;;;;;;;17.61;48.35;100749.34;4924435;28;97949;-63
2022/04/14 00:44:35;;;;;;;;;;;;;;;17.59;48.30;100746.91;4923369;28;97693;-64
2022/04/14 00:47:01;;;;;;;;;;;;;;;17.60;48.47;100742.28;4922236;28;128024;-64
2022/04/14 00:49:27;;;;;;;;;;;;;;;17.60;48.20;100750.44;4920487;28;119805;-63
2022/04/14 00:51:53;;;;;;;;;;;;;;;17.59;48.45;100743.38;4937283;28;117903;-63
2022/04/14 00:54:18;;;;;;;;;;;;;;;17.58;48.31;100748.03;4923194;28;128247;-63
2022/04/14 00:56:44;;;;;;;;;;;;;;;17.59;48.36;100740.66;4936770;28;126966;-62
2022/04/14 00:59:10;;;;;;;;;;;;;;;17.57;48.44;100745.63;4920483;28;128503;-62
2022/04/14 01:01:36;;;;;;;;;;;;;;;17.56;48.40;100747.53;4922530;28;98051;-63
2022/04/14 01:04:02;;;;;;;;;;;;;;;17.57;48.29;100748.34;4922289;28;126856;-63
2022/04/14 01:06:28;;;;;;;;;;;;;;;17.56;48.39;100747.53;4922762;28;128172;-63
2022/04/14 01:11:40;;;;;;;;;;;;;;;17.55;48.26;100754.09;4920274;28;98097;-63
2022/04/14 01:14:06;;;;;;;;;;;;;;;17.54;48.45;100747.03;4921452;28;100208;-63
2022/04/14 01:16:32;;;;;;;;;;;;;;;17.55;48.38;100743.19;4920158;28;127734;-64
2022/04/14 01:18:59;;;;;;;;;;;;;;;17.54;48.34;100743.50;4921200;28;127621;-63
2022/04/14 01:21:28;;;;;;;;;;;;;;;17.53;48.44;100745.44;4918656;28;98102;-63
2022/04/14 01:23:53;;;;;;;;;;;;;;;17.52;48.45;100745.72;4930173;28;98558;-63
2022/04/14 01:26:19;;;;;;;;;;;;;;;17.53;48.52;100745.44;4916276;28;128162;-63
2022/04/14 01:28:45;;;;;;;;;;;;;;;17.51;48.50;100744.94;4914097;28;126893;-64
2022/04/14 01:31:11;;;;;;;;;;;;;;;17.51;48.60;100744.94;4922768;28;98135;-62
2022/04/14 01:33:37;;;;;;;;;;;;;;;17.50;48.60;100746.03;4922174;28;108647;-63
2022/04/14 01:36:03;;;;;;;;;;;;;;;17.51;48.41;100744.13;4922035;28;128679;-63
2022/04/14 01:38:29;;;;;;;;;;;;;;;17.50;48.58;100743.31;4922563;28;98141;-63
2022/04/14 01:40:55;;;;;;;;;;;;;;;17.49;48.47;100749.06;4920659;28;117022;-64
2022/04/14 01:43:21;;;;;;;;;;;;;;;17.49;48.72;100751.78;4921931;28;128834;-63
2022/04/14 01:45:50;;;;;;;;;;;;;;;17.47;48.66;100746.66;4921942;28;127944;-63
2022/04/14 01:48:17;;;;;;;;;;;;;;;17.46;48.65;100747.78;4921567;28;98548;-63
2022/04/14 01:50:43;;;;;;;;;;;;;;;17.45;48.79;100748.06;4922952;28;98008;-64
2022/04/14 01:53:09;;;;;;;;;;;;;;;17.44;48.75;100749.97;4921999;28;101408;-64
2022/04/14 01:55:35;;;;;;;;;;;;;;;17.43;48.80;100753.81;4924672;28;128140;-64
2022/04/14 01:58:01;;;;;;;;;;;;;;;17.41;48.60;100747.91;4936784;28;126885;-63
2022/04/14 02:00:27;;;;;;;;;;;;;;;17.41;48.57;100753.34;4922307;28;118990;-63
2022/04/14 02:02:52;;;;;;;;;;;;;;;17.39;48.65;100748.19;4921688;28;127345;-63
2022/04/14 02:05:18;;;;;;;;;;;;;;;17.37;48.76;100750.41;4922237;28;107701;-63
2022/04/14 02:07:44;;;;;;;;;;;;;;;17.35;48.69;100752.63;4920970;28;125563;-63
2022/04/14 02:10:13;;;;;;;;;;;;;;;17.35;48.69;100758.06;4921700;28;117506;-62
2022/04/14 02:12:39;;;;;;;;;;;;;;;17.33;48.67;100754.03;4922715;28;98217;-64
2022/04/14 02:15:05;;;;;;;;;;;;;;;17.33;48.71;100754.03;4920993;28;99788;-63
2022/04/14 02:17:31;;;;;;;;;;;;;;;17.30;48.96;100752.75;4920107;28;99639;-64
2022/04/14 02:19:57;;;;;;;;;;;;;;;17.28;48.74;100749.50;4923964;28;117317;-62
2022/04/14 02:22:23;;;;;;;;;;;;;;;17.26;48.62;100754.47;4921831;28;98912;-64
2022/04/14 02:24:49;;;;;;;;;;;;;;;17.24;48.74;100753.97;4922054;28;99173;-64
2022/04/14 02:27:15;;;;;;;;;;;;;;;17.24;48.89;100764.06;4920576;28;126638;-63
2022/04/14 02:29:41;;;;;;;;;;;;;;;17.22;48.78;100763.56;4921907;28;118053;-63
2022/04/14 02:32:07;;;;;;;;;;;;;;;17.20;48.84;100768.50;4921699;28;98448;-63
2022/04/14 02:34:33;;;;;;;;;;;;;;;17.18;48.85;100782.44;4921149;28;125853;-64
2022/04/14 02:36:59;;;;;;;;;;;;;;;17.15;48.98;100767.50;4920668;28;116637;-63
2022/04/14 02:39:25;;;;;;;;;;;;;;;17.15;48.80;100769.41;4922430;28;97903;-63
2022/04/14 02:41:51;;;;;;;;;;;;;;;17.13;48.96;100771.63;4920973;28;127810;-64
2022/04/14 02:44:17;;;;;;;;;;;;;;;17.11;48.77;100766.47;4921809;28;98361;-65
2022/04/14 02:46:43;;;;;;;;;;;;;;;17.09;48.98;100765.97;4920953;28;127994;-62
2022/04/14 02:49:09;;;;;;;;;;;;;;;17.08;49.07;100769.00;4921296;28;117081;-63
2022/04/14 02:51:35;;;;;;;;;;;;;;;17.05;48.89;100767.69;4919178;28;98306;-63
2022/04/14 02:54:01;;;;;;;;;;;;;;;17.04;48.94;100774.25;4920720;28;128810;-64
2022/04/14 02:56:27;;;;;;;;;;;;;;;17.03;49.12;100774.56;4930926;28;127786;-63
2022/04/14 02:58:53;;;;;;;;;;;;;;;17.02;48.86;100770.25;4932842;28;116426;-63
2022/04/14 03:01:19;;;;;;;;;;;;;;;17.00;48.98;100761.56;4921489;28;121078;-63
2022/04/14 03:03:45;;;;;;;;;;;;;;;16.98;48.98;100764.59;4921082;28;127271;-63
2022/04/14 03:06:11;;;;;;;;;;;;;;;16.97;49.01;100762.16;4919155;28;126742;-63
2022/04/14 03:08:37;;;;;;;;;;;;;;;16.95;48.97;100769.81;4918727;28;116857;-64
2022/04/14 03:11:03;;;;;;;;;;;;;;;16.93;49.06;100767.38;4921479;28;98806;-64
2022/04/14 03:13:29;;;;;;;;;;;;;;;16.91;49.17;100770.44;4919972;28;126993;-63
2022/04/14 03:15:55;;;;;;;;;;;;;;;16.88;49.20;100760.13;4921570;28;104603;-64
2022/04/14 03:18:21;;;;;;;;;;;;;;;16.86;48.93;100770.53;4921051;28;97798;-63
2022/04/14 03:20:47;;;;;;;;;;;;;;;16.85;49.29;100768.91;4932099;28;98963;-64
2022/04/14 03:23:13;;;;;;;;;;;;;;;16.84;49.12;100772.75;4920776;28;98313;-63
2022/04/14 03:25:39;;;;;;;;;;;;;;;16.82;49.03;100771.41;4921222;28;98249;-65
2022/04/14 03:28:05;;;;;;;;;;;;;;;16.80;49.23;100763.56;4921196;28;97767;-64
2022/04/14 03:30:31;;;;;;;;;;;;;;;16.79;49.17;100761.16;4917973;28;128024;-63
2022/04/14 03:32:57;;;;;;;;;;;;;;;16.77;49.28;100758.72;4920579;28;98832;-63
2022/04/14 03:35:23;;;;;;;;;;;;;;;16.76;49.15;100750.84;4920636;28;125480;-64
2022/04/14 03:37:49;;;;;;;;;;;;;;;16.74;49.12;100761.22;4902236;28;117740;-63
2022/04/14 03:40:15;;;;;;;;;;;;;;;16.71;49.43;100762.63;4920841;28;129044;-63
2022/04/14 03:42:40;;;;;;;;;;;;;;;16.69;49.08;100762.91;4920757;28;98145;-63
2022/04/14 03:45:07;;;;;;;;;;;;;;;16.67;49.38;100762.41;4920969;28;98210;-63
2022/04/14 03:47:33;;;;;;;;;;;;;;;16.67;49.03;100767.06;4919362;28;112832;-63
2022/04/14 03:49:59;;;;;;;;;;;;;;;16.65;48.98;100761.09;4935982;28;103109;-64
2022/04/14 03:52:25;;;;;;;;;;;;;;;16.62;49.21;100753.53;4920324;28;127498;-63
2022/04/14 03:54:51;;;;;;;;;;;;;;;16.61;49.11;100754.63;4920425;28;127498;-63
2022/04/14 03:57:17;;;;;;;;;;;;;;;16.59;49.19;100763.13;4938833;28;97988;-63
2022/04/14 03:59:42;;;;;;;;;;;;;;;16.58;49.33;100757.94;4926693;28;103014;-63
2022/04/14 04:02:08;;;;;;;;;;;;;;;16.56;49.50;100755.53;4919992;28;128909;-64
2022/04/14 04:04:34;;;;;;;;;;;;;;;16.54;49.17;100755.03;4919598;28;127560;-63
2022/04/14 04:07:00;;;;;;;;;;;;;;;16.54;49.30;100757.75;4919977;28;108167;-64
2022/04/14 04:09:32;;;;;;;;;;;;;;;16.51;49.46;100766.53;4921152;28;98231;-64
2022/04/14 04:11:58;;;;;;;;;;;;;;;16.52;49.21;100761.88;4920613;28;98501;-65
2022/04/14 04:14:24;;;;;;;;;;;;;;;16.51;49.44;100771.16;4921098;28;98036;-64
2022/04/14 04:16:50;;;;;;;;;;;;;;;16.49;49.11;100776.09;4917724;28;117199;-63
2022/04/14 04:19:16;;;;;;;;;;;;;;;16.49;49.47;100776.09;4922190;28;98972;-64
2022/04/14 04:21:42;;;;;;;;;;;;;;;16.48;49.31;100777.19;4939485;28;115516;-64
2022/04/14 04:24:08;;;;;;;;;;;;;;;16.47;49.44;100778.31;4925381;28;127438;-63
2022/04/14 04:26:34;;;;;;;;;;;;;;;16.47;49.25;100786.47;4915866;28;117582;-64
2022/04/14 04:28:59;;;;;;;;;;;;;;;16.47;49.24;100775.59;4907561;28;128363;-62
2022/04/14 04:31:26;;;;;;;;;;;;;;;16.46;49.42;100774.75;4919887;28;118860;-64
2022/04/14 04:33:53;;;;;;;;;;;;;;;16.48;49.24;100782.63;4919674;28;123183;-63
2022/04/14 04:36:18;;;;;;;;;;;;;;;16.47;49.52;100781.03;4921112;28;98022;-63
2022/04/14 04:38:44;;;;;;;;;;;;;;;16.47;49.52;100784.56;4920490;28;128721;-64
2022/04/14 04:41:10;;;;;;;;;;;;;;;16.45;49.79;100782.13;4917752;28;127068;-63
2022/04/14 04:43:36;;;;;;;;;;;;;;;16.47;49.92;100787.28;4921782;28;97938;-63
2022/04/14 04:46:02;;;;;;;;;;;;;;;16.44;49.83;100798.75;4922395;28;97905;-64
2022/04/14 04:48:28;;;;;;;;;;;;;;;16.42;50.20;100795.50;4937358;28;99233;-63
2022/04/14 04:50:54;;;;;;;;;;;;;;;16.40;50.16;100795.00;4922575;28;119765;-63
2022/04/14 04:53:20;;;;;;;;;;;;;;;16.35;50.23;100792.38;4937360;28;103107;-63
2022/04/14 04:55:46;;;;;;;;;;;;;;;16.32;50.43;100799.22;4929076;28;97860;-63
2022/04/14 04:58:12;;;;;;;;;;;;;;;16.31;50.62;100804.94;4938766;28;127368;-64
2022/04/14 05:00:38;;;;;;;;;;;;;;;16.28;50.30;100806.38;4922227;28;99055;-63
2022/04/14 05:03:09;;;;;;;;;;;;;;;16.26;50.63;100807.75;4922369;28;98354;-64
2022/04/14 05:05:35;;;;;;;;;;;;;;;16.24;50.29;100807.25;4918573;28;98022;-64
2022/04/14 05:08:01;;;;;;;;;;;;;;;16.23;50.83;100805.63;4920340;28;99022;-63
2022/04/14 05:10:27;;;;;;;;;;;;;;;16.20;50.85;100810.56;4919652;28;99386;-63
2022/04/14 05:12:53;;;;;;;;;;;;;;;16.20;50.82;100816.00;4917537;28;127690;-63
2022/04/14 05:15:21;;;;;;;;;;;;;;;16.20;51.04;100816.00;4919486;28;116899;-63
2022/04/14 05:17:47;;;;;;;;;;;;;;;16.22;50.54;100812.16;4918190;28;98424;-64
2022/04/14 05:20:13;;;;;;;;;;;;;;;16.22;50.88;100812.97;4933336;28;110050;-63
2022/04/14 05:22:39;;;;;;;;;;;;;;;16.23;50.92;100820.06;4918482;28;127024;-63
2022/04/14 05:25:05;;;;;;;;;;;;;;;16.25;50.76;100826.00;4917240;28;116539;-63
2022/04/14 05:27:31;;;;;;;;;;;;;;;16.28;50.66;100819.97;4919208;28;98931;-63
2022/04/14 05:29:57;;;;;;;;;;;;;;;16.31;50.88;100818.53;4918751;28;128187;-63
2022/04/14 05:32:23;;;;;;;;;;;;;;;16.35;51.20;100823.13;4915852;28;128072;-63
2022/04/14 05:34:48;;;;;;;;;;;;;;;16.37;50.80;100834.50;4918858;28;117550;-64
2022/04/14 05:37:15;;;;;;;;;;;;;;;16.43;51.02;100835.22;4931655;28;128435;-63
2022/04/14 05:39:41;;;;;;;;;;;;;;;16.48;51.16;100834.34;4920420;28;98264;-64
2022/04/14 05:42:06;;;;;;;;;;;;;;;16.54;50.69;100841.28;4919142;28;97867;-63
2022/04/14 05:44:32;;;;;;;;;;;;;;;16.58;51.05;100834.16;4918106;28;118040;-63
2022/04/14 05:46:58;;;;;;;;;;;;;;;16.64;50.82;100841.94;4917906;28;128163;-64
2022/04/14 05:49:24;;;;;;;;;;;;;;;16.72;50.73;100828.75;4918633;28;127640;-63
2022/04/14 05:51:50;;;;;;;;;;;;;;;16.79;50.84;100834.66;4918101;28;128247;-63
2022/04/14 05:54:16;;;;;;;;;;;;;;;16.86;50.71;100833.16;4048807;28;10001097;-63
2022/04/14 05:56:42;;;;;;;;;;;;;;;16.96;50.77;100834.84;4925678;28;98226;-63
2022/04/14 05:59:16;;;;;;;;;;;;;;;17.06;50.71;100839.31;4898346;28;117093;-64
2022/04/14 06:01:43;;;;;;;;;;;;;;;17.17;50.72;100836.09;4917570;28;98297;-62
2022/04/14 06:04:09;;;;;;;;;;;;;;;17.31;50.57;100843.44;4932654;28;99326;-63
2022/04/14 06:06:34;;;;;;;;;;;;;;;17.44;50.33;100826.28;4917146;28;101341;-64
2022/04/14 06:09:00;;;;;;;;;;;;;;;17.59;50.08;100845.03;4916699;28;115386;-62
2022/04/14 06:11:28;;;;;;;;;;;;;;;17.77;49.79;100840.59;4913434;28;129350;-63
2022/04/14 06:13:54;;;;;;;;;;;;;;;17.95;49.71;100838.03;4916427;28;99378;-63
2022/04/14 06:16:20;;;;;;;;;;;;;;;18.12;49.50;100840.91;4916146;28;126573;-62
2022/04/14 06:18:46;;;;;;;;;;;;;;;18.28;49.27;100836.69;4916738;28;115756;-63
2022/04/14 06:21:12;;;;;;;;;;;;;;;18.45;49.20;100841.47;4916477;28;128174;-63
2022/04/14 06:23:37;;;;;;;;;;;;;;;18.63;48.79;100845.13;4916154;28;127528;-64
2022/04/14 06:26:04;;;;;;;;;;;;;;;18.80;48.68;100842.50;4916789;28;125968;-66
2022/04/14 06:28:31;;;;;;;;;;;;;;;18.98;48.53;100840.69;4914614;28;109949;-63
2022/04/14 06:30:57;;;;;;;;;;;;;;;19.21;48.15;100852.31;4930925;28;98363;-64
2022/04/14 06:33:23;;;;;;;;;;;;;;;19.45;47.84;100849.19;4916746;28;98293;-63
2022/04/14 06:35:49;;;;;;;;;;;;;;;19.82;47.21;100849.78;4915861;28;98022;-63
2022/04/14 06:38:16;;;;;;;;;;;;;;;20.30;46.70;100843.34;4911465;28;97998;-62
2022/04/14 06:40:42;;;;;;;;;;;;;;;20.73;46.17;100845.22;4914605;28;126476;-63
2022/04/14 06:43:08;;;;;;;;;;;;;;;21.10;45.78;100846.38;4913251;28;98835;-64
2022/04/14 06:45:34;;;;;;;;;;;;;;;21.66;45.22;100847.09;4915953;28;102715;-62
2022/04/14 06:48:00;;;;;;;;;;;;;;;22.44;44.09;100841.00;4931355;28;98193;-65
2022/04/14 06:50:26;;;;;;;;;;;;;;;22.85;43.48;100853.00;4929871;28;129059;-65
2022/04/14 06:52:52;;;;;;;;;;;;;;;22.92;43.63;100849.72;4916182;28;99195;-63
2022/04/14 06:55:21;;;;;;;;;;;;;;;22.97;43.69;100844.78;4918741;28;98816;-64
2022/04/14 06:57:47;;;;;;;;;;;;;;;22.90;43.83;100846.47;4920256;28;97970;-63
2022/04/14 07:00:13;;;;;;;;;;;;;;;22.88;43.80;100848.75;4917105;28;126201;-64
2022/04/14 07:03:05;;;;;;;;;;;;;;;22.89;44.06;100842.13;4916704;28;122285;-63
2022/04/14 07:05:31;;;;;;;;;;;;;;;22.98;44.04;100842.84;4915399;28;126928;-65
2022/04/14 07:07:57;;;;;;;;;;;;;;;23.04;44.00;100841.47;4917259;28;98140;-63
2022/04/14 07:10:23;;;;;;;;;;;;;;;23.10;44.23;100847.53;4917255;28;127806;-63
2022/04/14 07:12:49;;;;;;;;;;;;;;;23.12;44.46;100845.28;4915804;28;100135;-63
2022/04/14 07:15:15;;;;;;;;;;;;;;;23.15;44.81;100844.59;4917265;28;127616;-65
2022/04/14 07:17:41;;;;;;;;;;;;;;;23.20;44.86;100844.34;4917943;28;97818;-65
2022/04/14 07:20:09;;;;;;;;;;;;;;;23.32;44.90;100836.09;4921937;28;98944;-63
2022/04/14 07:22:49;;;;;;;;;;;;;;;23.46;45.11;100839.31;4917953;28;99225;-63
2022/04/14 07:25:15;;;;;;;;;;;;;;;23.67;44.77;100838.38;4917728;28;98482;-64
2022/04/14 07:27:42;;;;;;;;;;;;;;;23.86;44.89;100841.31;4917141;28;97829;-63
2022/04/14 07:30:08;;;;;;;;;;;;;;;24.10;44.49;100842.41;4917524;28;128278;-65
2022/04/14 07:32:35;;;;;;;;;;;;;;;24.36;44.79;100847.44;4917018;28;98363;-63
2022/04/14 07:35:03;;;;;;;;;;;;;;;24.61;44.73;100837.94;4917644;28;98049;-65
2022/04/14 07:37:29;;;;;;;;;;;;;;;24.88;44.64;100839.03;4917028;28;98059;-63
2022/04/14 07:39:55;;;;;;;;;;;;;;;25.16;44.32;100850.00;4917695;28;98302;-64
2022/04/14 07:42:21;;;;;;;;;;;;;;;25.45;44.18;100845.16;4916775;28;127236;-63
2022/04/14 07:44:47;;;;;;;;;;;;;;;25.68;44.48;100846.06;4917552;28;97879;-63
2022/04/14 07:47:13;;;;;;;;;;;;;;;25.90;43.93;100839.09;4915836;28;111706;-64
2022/04/14 07:49:39;;;;;;;;;;;;;;;26.18;43.95;100843.59;4917720;28;98743;-63
2022/04/14 07:52:06;;;;;;;;;;;;;;;26.55;43.57;100841.19;4917520;28;98596;-63
2022/04/14 07:54:34;;;;;;;;;;;;;;;27.01;43.01;100843.97;4932057;28;98084;-67
2022/04/14 07:57:00;;;;;;;;;;;;;;;27.55;42.56;100839.25;4918415;28;97799;-64
2022/04/14 07:59:26;;;;;;;;;;;;;;;28.21;41.99;100850.84;4917740;28;98172;-63
2022/04/14 08:01:52;;;;;;;;;;;;;;;28.73;41.26;100849.03;4916052;28;117094;-63
2022/04/14 08:04:18;;;;;;;;;;;;;;;29.26;40.89;100851.50;4917676;28;98813;-63
2022/04/14 08:06:44;;;;;;;;;;;;;;;29.84;40.61;100859.81;4915997;28;119211;-63
2022/04/14 08:09:10;;;;;;;;;;;;;;;30.26;40.18;100857.63;4917831;28;98437;-64
2022/04/14 08:11:36;;;;;;;;;;;;;;;30.35;40.36;100858.06;4917541;28;98627;-62
2022/04/14 08:14:02;;;;;;;;;;;;;;;30.32;40.23;100854.06;4915273;28;126336;-61
2022/04/14 08:16:28;;;;;;;;;;;;;;;30.33;40.67;100852.09;4917091;28;97946;-61
2022/04/14 08:18:54;;;;;;;;;;;;;;;30.62;39.72;100854.94;4918122;28;127809;-62
2022/04/14 08:21:20;;;;;;;;;;;;;;;30.95;39.37;100853.81;4920301;28;126610;-61
2022/04/14 08:23:46;;;;;;;;;;;;;;;30.88;39.78;100854.59;4935464;28;97923;-62
2022/04/14 08:26:12;;;;;;;;;;;;;;;30.53;39.77;100858.09;4920577;28;97850;-62
2022/04/14 08:28:41;;;;;;;;;;;;;;;30.60;39.55;100846.97;4918758;28;98379;-62
2022/04/14 08:31:08;;;;;;;;;;;;;;;30.75;39.22;100848.63;4918770;28;99729;-63
2022/04/14 08:33:35;;;;;;;;;;;;;;;31.20;38.76;100862.13;4919838;28;98974;-64
2022/04/14 08:36:02;;;;;;;;;;;;;;;31.75;38.20;100856.09;4935030;28;98222;-63
2022/04/14 08:38:28;;;;;;;;;;;;;;;32.60;37.45;100863.31;4919208;28;98482;-62
2022/04/14 08:41:02;;;;;;;;;;;;;;;33.47;36.37;100861.44;4918904;28;128012;-62
2022/04/14 08:43:33;;;;;;;;;;;;;;;33.74;36.82;100858.75;4919816;28;97846;-63
2022/04/14 08:45:59;;;;;;;;;;;;;;;33.91;37.03;100856.94;4921196;28;97828;-62
2022/04/14 08:48:25;;;;;;;;;;;;;;;34.51;36.50;100861.00;4932990;28;125394;-64
2022/04/14 08:50:51;;;;;;;;;;;;;;;34.94;35.62;100863.13;4918448;28;98250;-62
2022/04/14 08:53:22;;;;;;;;;;;;;;;35.46;35.67;100859.81;4918897;28;128089;-64
2022/04/14 08:55:48;;;;;;;;;;;;;;;34.25;36.80;100856.13;4928182;28;111366;-64
2022/04/14 08:58:15;;;;;;;;;;;;;;;34.76;36.46;100860.59;4919044;28;98222;-63
2022/04/14 09:00:41;;;;;;;;;;;;;;;36.36;34.40;100864.44;4920915;28;98824;-64
2022/04/14 09:03:07;;;;;;;;;;;;;;;37.74;32.87;100867.78;4919467;28;98675;-63
2022/04/14 09:05:34;;;;;;;;;;;;;;;38.77;32.05;100857.47;4919226;28;119011;-63
2022/04/14 09:07:59;;;;;;;;;;;;;;;39.27;32.36;100867.88;4917277;28;99541;-64
2022/04/14 09:10:26;;;;;;;;;;;;;;;39.64;32.23;100864.53;4933542;28;125442;-64
2022/04/14 09:12:52;;;;;;;;;;;;;;;39.96;31.99;100863.38;4919450;28;98513;-63
2022/04/14 09:15:18;;;;;;;;;;;;;;;40.87;31.29;100865.81;4918970;28;115436;-63
2022/04/14 09:17:44;;;;;;;;;;;;;;;41.15;31.15;100857.41;4918624;28;98959;-63
2022/04/14 09:20:31;;;;;;;;;;;;;;;41.20;31.46;100856.78;4924459;28;128220;-65
2022/04/14 09:23:18;;;;;;;;;;;;;;;41.54;31.18;100861.34;4919311;28;98039;-64
2022/04/14 09:25:44;;;;;;;;;;;;;;;41.95;31.10;100853.44;4919483;28;97710;-64
2022/04/14 09:28:14;;;;;;;;;;;;;;;42.28;30.91;100853.50;4918765;28;98453;-64
2022/04/14 09:30:40;;;;;;;;;;;;;;;42.90;30.43;100852.09;4918268;28;117475;-65
2022/04/14 09:33:14;;;;;;;;;;;;;;;44.07;29.38;100847.91;4918680;28;98445;-63
2022/04/14 09:35:40;;;;;;;;;;;;;;;44.63;28.15;100850.03;4919197;28;110592;-64
2022/04/14 09:38:13;;;;;;;;;;;;;;;45.10;26.35;100851.72;4918480;28;128875;-64
2022/04/14 09:40:40;;;;;;;;;;;;;;;45.46;25.44;100833.25;4919306;28;98674;-65
2022/04/14 09:43:06;;;;;;;;;;;;;;;45.75;24.39;100842.88;4918835;28;97927;-64
2022/04/14 09:45:33;;;;;;;;;;;;;;;46.08;23.99;100836.66;4919185;28;117215;-65
2022/04/14 09:48:06;;;;;;;;;;;;;;;46.56;23.26;100833.09;4933048;28;98395;-65
2022/04/14 09:50:39;;;;;;;;;;;;;;;46.72;22.96;100843.81;4933237;28;99247;-64
2022/04/14 09:53:08;;;;;;;;;;;;;;;46.63;22.23;100835.50;4918990;28;98394;-64
2022/04/14 09:55:38;;;;;;;;;;;;;;;46.68;22.24;100837.59;4922545;28;98472;-65
2022/04/14 09:58:05;;;;;;;;;;;;;;;47.00;22.08;100831.78;4918410;28;98295;-65
2022/04/14 10:00:43;;;;;;;;;;;;;;;47.12;21.56;100824.81;4919961;28;98460;-65
2022/04/14 10:03:17;;;;;;;;;;;;;;;47.10;21.26;100816.00;4918425;28;98304;-64
2022/04/14 10:05:44;;;;;;;;;;;;;;;45.98;21.74;100821.84;4918110;28;98727;-65
2022/04/14 10:08:10;;;;;;;;;;;;;;;46.64;21.22;100811.41;4918302;28;99148;-62
2022/04/14 10:10:41;;;;;;;;;;;;;;;46.32;20.81;100810.72;4918670;28;98162;-62
2022/04/14 10:13:08;;;;;;;;;;;;;;;43.82;22.24;100809.56;4917647;28;105393;-62
2022/04/14 10:15:35;;;;;;;;;;;;;;;41.76;23.49;100815.13;4912561;28;113376;-64
2022/04/14 10:18:07;;;;;;;;;;;;;;;40.64;23.76;100815.56;4917783;28;98901;-65
2022/04/14 10:20:34;;;;;;;;;;;;;;;41.65;22.42;100821.28;4918782;28;99226;-65
2022/04/14 10:23:00;;;;;;;;;;;;;;;41.82;22.18;100821.75;4919052;28;97968;-62
2022/04/14 10:25:26;;;;;;;;;;;;;;;42.00;21.90;100815.22;4933825;28;97850;-62
2022/04/14 10:27:54;;;;;;;;;;;;;;;42.20;21.98;100812.63;4931082;28;99137;-62
2022/04/14 10:30:20;;;;;;;;;;;;;;;42.84;21.30;100817.16;4933291;28;99662;-62
2022/04/14 10:32:46;;;;;;;;;;;;;;;42.80;21.33;100822.25;4918226;28;98165;-64
2022/04/14 10:35:12;;;;;;;;;;;;;;;42.96;21.18;100815.34;4918637;28;116952;-63
2022/04/14 10:37:46;;;;;;;;;;;;;;;43.22;21.47;100818.47;4917615;28;99106;-63
2022/04/14 10:40:13;;;;;;;;;;;;;;;42.80;21.69;100810.91;4917005;28;107951;-64
2022/04/14 10:42:45;;;;;;;;;;;;;;;42.69;21.78;100813.53;4915655;28;98328;-64
2022/04/14 10:45:22;;;;;;;;;;;;;;;42.38;21.48;100806.91;4918277;28;114069;-64
2022/04/14 10:47:54;;;;;;;;;;;;;;;42.40;21.44;100810.03;4918505;28;98969;-63
2022/04/14 10:50:31;;;;;;;;;;;;;;;42.64;21.49;100801.56;4918250;28;98019;-63
2022/04/14 10:53:04;;;;;;;;;;;;;;;42.92;21.20;100806.25;4917865;28;98152;-64
2022/04/14 10:55:46;;;;;;;;;;;;;;;43.03;21.45;100806.47;4917804;28;98144;-63
2022/04/14 10:58:51;;;;;;;;;;;;;;;43.16;21.17;100811.94;4931333;28;98192;-64
2022/04/14 11:01:17;;;;;;;;;;;;;;;42.63;22.02;100804.88;4922914;28;98376;-64
2022/04/14 11:03:47;;;;;;;;;;;;;;;42.35;21.58;100804.25;4913587;28;128511;-66
2022/04/14 11:06:41;;;;;;;;;;;;;;;41.97;21.98;100807.69;4918987;28;98125;-64
2022/04/14 11:09:08;;;;;;;;;;;;;;;41.33;22.37;100795.22;4917928;28;99123;-63
2022/04/14 11:11:59;;;;;;;;;;;;;;;41.01;22.41;100807.94;4918395;28;99046;-63
2022/04/14 11:14:25;;;;;;;;;;;;;;;40.82;22.77;100800.69;4917320;28;98921;-63
2022/04/14 11:16:52;;;;;;;;;;;;;;;40.69;22.61;100810.09;4909258;28;115720;-64
2022/04/14 11:19:18;;;;;;;;;;;;;;;40.53;22.67;100799.03;4918316;28;98582;-63
2022/04/14 11:22:02;;;;;;;;;;;;;;;40.06;22.74;100800.13;4917542;28;98575;-64
2022/04/14 11:24:37;;;;;;;;;;;;;;;39.74;22.87;100796.50;4911127;28;98653;-64
2022/04/14 11:27:10;;;;;;;;;;;;;;;39.41;22.94;100804.56;4910400;28;98743;-63
2022/04/14 11:29:36;;;;;;;;;;;;;;;38.79;23.57;100809.94;4917256;28;98526;-62
2022/04/14 11:32:02;;;;;;;;;;;;;;;38.62;23.68;100809.28;4915520;28;126264;-63
2022/04/14 11:34:31;;;;;;;;;;;;;;;38.29;23.51;100812.31;4917098;28;125562;-62
2022/04/14 11:36:58;;;;;;;;;;;;;;;37.99;23.86;100808.03;4917856;28;97830;-62
2022/04/14 11:39:25;;;;;;;;;;;;;;;37.09;24.51;100812.53;4915667;28;98090;-63
2022/04/14 11:41:53;;;;;;;;;;;;;;;36.64;24.89;100817.31;4917218;28;98907;-63
2022/04/14 11:44:30;;;;;;;;;;;;;;;36.40;24.95;100811.03;4915445;28;98361;-63
2022/04/14 11:46:58;;;;;;;;;;;;;;;35.93;25.42;100806.44;4916762;28;98177;-62
2022/04/14 11:49:26;;;;;;;;;;;;;;;35.92;25.29;100812.47;4917058;28;98226;-63
2022/04/14 11:51:54;;;;;;;;;;;;;;;35.70;25.35;100814.94;4918506;28;98461;-64
2022/04/14 11:54:29;;;;;;;;;;;;;;;35.17;26.02;100809.13;4923649;28;97989;-63
2022/04/14 11:56:58;;;;;;;;;;;;;;;34.85;26.33;100818.06;4924294;28;97979;-63
2022/04/14 11:59:35;;;;;;;;;;;;;;;34.61;26.42;100820.84;4924012;28;98380;-62
2022/04/14 12:02:15;;;;;;;;;;;;;;;34.57;25.94;100811.72;4923050;28;98956;-62
2022/04/14 12:04:43;;;;;;;;;;;;;;;34.52;26.51;100811.41;4924163;28;98446;-63
2022/04/14 12:07:10;;;;;;;;;;;;;;;34.51;26.43;100812.66;4922957;28;110019;-63
2022/04/14 12:09:37;;;;;;;;;;;;;;;34.39;26.21;100809.19;4923383;28;97726;-63
2022/04/14 12:12:14;;;;;;;;;;;;;;;34.28;26.74;100816.94;4922962;28;98807;-63
2022/04/14 12:14:47;;;;;;;;;;;;;;;33.96;26.71;100812.56;4924128;28;98009;-65
2022/04/14 12:17:16;;;;;;;;;;;;;;;34.10;26.60;100816.38;4923321;28;97910;-62
2022/04/14 12:19:43;;;;;;;;;;;;;;;34.08;26.40;100811.22;4922681;28;98947;-63
2022/04/14 12:22:09;;;;;;;;;;;;;;;34.11;26.59;100817.97;4922469;28;97804;-61
2022/04/14 12:24:35;;;;;;;;;;;;;;;34.32;26.89;100830.88;4937316;28;98541;-63
2022/04/14 12:27:01;;;;;;;;;;;;;;;34.22;26.59;100832.59;4922865;28;116939;-63
2022/04/14 12:29:27;;;;;;;;;;;;;;;33.74;27.12;100830.78;4923121;28;98905;-62
2022/04/14 12:31:57;;;;;;;;;;;;;;;33.28;27.83;100828.47;4922226;28;98761;-62
2022/04/14 12:34:23;;;;;;;;;;;;;;;32.80;27.87;100834.88;4923427;28;99246;-63
2022/04/14 12:36:49;;;;;;;;;;;;;;;32.24;28.10;100827.25;4922768;28;97809;-63